Airfield :
LOGIN :

Register | Disclaimer

   EN    FR    IT 

 










Legend :    VFR   Marginal VFR   IFR   Intensive IFR   Very Intensive IFR
Visi :
Ceiling :
>= 8 km
>= 3000ft
5 to 8 km
1000 to 3000 ft
1500m to 5 km
500 to 1000 ft
800 to 1500m
200 to 500 ft
< 800m
< 200 ft
Symbols :   Thunderstorms  Fog  Heavy snow  Heavy precipitations  Wind > 20 kt
SIGMETs :     Misc.  Thunderstorms  Icing  Turbulence  Mountain Waves  Volcanic Ashes







- Airport Elevation : 137 ft


LIPS - Istrana AFB Treviso

CURRENT METAR :
  • 230555Z 33004KT 5000 BR SCT040 BKN060 01/00 Q1000 RMK OVC VIS MIN 5000 WIND THR26 30005KT WIND THR08 33006KT WHT

EXPIRED METARs :
  • 230455Z 35003KT 4500 BR SCT030 BKN040 01/M00 Q1000 RMK OVC VIS MIN 4500 WIND THR26 30003KT WIND THR08 34003KT GRN
  • 230355Z 34003KT 4000 -SN OVC050 01/00 Q1000 RMK OVC VIS MIN 4000 WIND THR26 30004KT WIND THR08 35004KT GRN

TAF COR TAF LIPS
Valid from the 23 at 06:00 until the 23 at 15:00 UTC


230500Z 2306/2315 04003KT 5000 BR BKN050
TEMPO 2303/2306 3000 SN BR SCT005 BKN040
No reported NOTAMs for that airfield.



MET'MAP, your aeronautical weather chart ! - Copyright ORBIFLY December 2007 - Disclaimer

ORBIFLY MET'MAP TEAM :

Programming & Development : Alexandra Zaïnal
Concept & Development : Baudouin d'Aumeries
Co-Development & Prog : Marc-Olivier Méhu
Technical & hardware support : Manuel Goepfert

Contact : metmap@orbifly.com




SOURCES & CREDITS :

   NOAA